Time;durP1;ratioP1;P1;durP2;ratioP2;P2;SDS_P1;SDS_P2;PMS_P1;PMS_P2;Temp;Humidity;BMP_temperature;BMP_pressure;BME280_temperature;BME280_humidity;BME280_pressure;Samples;Min_cycle;Max_cycle;Signal;HPM_P1;HPM_P2
2024/02/26 00:01:52;;;;;;;0.65;0.30;;;8.70;1.00;;;;;;5140677;27;20517;-59
2024/02/26 00:04:19;;;;;;;0.80;0.40;;;8.80;1.00;;;;;;5140985;27;20472;-60
2024/02/26 00:06:48;;;;;;;0.60;0.40;;;8.80;1.00;;;;;;5136051;27;20420;-59
2024/02/26 00:09:14;;;;;;;0.70;0.40;;;8.70;1.00;;;;;;5119176;28;20506;-59
2024/02/26 00:11:41;;;;;;;0.70;0.40;;;8.70;1.00;;;;;;5136734;27;20529;-59
2024/02/26 00:14:08;;;;;;;0.60;0.30;;;8.70;1.00;;;;;;5132160;27;20511;-60
2024/02/26 00:16:35;;;;;;;0.60;0.40;;;8.70;1.00;;;;;;5120004;28;20478;-60
2024/02/26 00:19:02;;;;;;;0.70;0.40;;;8.80;1.00;;;;;;5119928;28;20412;-59
2024/02/26 00:21:29;;;;;;;0.70;0.40;;;8.90;1.00;;;;;;5120169;28;20416;-60
2024/02/26 00:23:57;;;;;;;0.70;0.30;;;8.80;1.00;;;;;;5120201;28;20506;-60
2024/02/26 00:26:24;;;;;;;0.70;0.30;;;8.70;1.00;;;;;;5120141;28;20523;-60
2024/02/26 00:28:51;;;;;;;0.70;0.40;;;8.60;1.00;;;;;;5111835;28;20894;-59
2024/02/26 00:31:18;;;;;;;0.88;0.40;;;8.50;21.90;;;;;;5120090;28;20495;-60
2024/02/26 00:33:45;;;;;;;0.80;0.50;;;8.50;2.70;;;;;;5119688;27;20451;-60
2024/02/26 00:36:11;;;;;;;1.00;0.30;;;8.50;11.30;;;;;;5130825;27;20458;-60
2024/02/26 00:38:39;;;;;;;0.65;0.40;;;8.40;6.10;;;;;;5139248;27;20509;-59
2024/02/26 00:41:07;;;;;;;0.70;0.30;;;8.40;10.20;;;;;;5139053;27;20437;-59
2024/02/26 00:43:34;;;;;;;1.30;0.40;;;8.50;22.30;;;;;;5135511;27;20869;-59
2024/02/26 00:46:02;;;;;;;1.00;0.30;;;8.60;39.50;;;;;;5109296;28;20450;-59
2024/02/26 00:48:28;;;;;;;1.30;0.40;;;8.60;15.70;;;;;;5118436;28;20515;-60
2024/02/26 00:50:55;;;;;;;0.80;0.40;;;8.70;1.00;;;;;;5119325;27;20780;-60
2024/02/26 00:53:22;;;;;;;0.77;0.40;;;8.60;1.00;;;;;;5138421;27;20418;-60
2024/02/26 00:55:49;;;;;;;0.80;0.40;;;8.70;1.00;;;;;;5133859;27;20514;-61
2024/02/26 00:58:18;;;;;;;0.60;0.35;;;8.60;1.00;;;;;;5118318;28;20419;-59
2024/02/26 01:00:45;;;;;;;0.60;0.40;;;8.60;1.00;;;;;;5117134;28;20426;-61
2024/02/26 01:03:12;;;;;;;0.80;0.40;;;8.60;1.00;;;;;;5118918;28;20568;-59
2024/02/26 01:05:39;;;;;;;0.80;0.40;;;8.60;1.00;;;;;;5119117;28;20510;-61
2024/02/26 01:08:06;;;;;;;1.17;0.38;;;8.60;1.00;;;;;;5115561;28;20455;-59
2024/02/26 01:10:33;;;;;;;0.60;0.30;;;8.70;11.30;;;;;;5118943;28;20431;-59
2024/02/26 01:13:00;;;;;;;0.68;0.40;;;8.70;15.50;;;;;;5117799;28;20523;-59
2024/02/26 01:15:29;;;;;;;1.20;0.30;;;8.70;1.00;;;;;;5118620;28;20471;-59
2024/02/26 01:17:55;;;;;;;1.50;0.40;;;8.80;8.00;;;;;;5118802;28;20455;-59
2024/02/26 01:20:22;;;;;;;0.60;0.40;;;8.80;1.00;;;;;;5119146;28;20527;-60
2024/02/26 01:22:49;;;;;;;0.50;0.30;;;8.70;1.00;;;;;;5119499;28;20447;-60
2024/02/26 01:25:16;;;;;;;0.90;0.30;;;8.70;21.50;;;;;;5114683;28;20823;-60
2024/02/26 01:27:44;;;;;;;0.70;0.40;;;8.70;11.70;;;;;;5121834;27;20490;-60
2024/02/26 01:30:11;;;;;;;0.60;0.40;;;8.80;23.40;;;;;;5120174;27;20483;-61
2024/02/26 01:32:40;;;;;;;0.70;0.40;;;8.90;1.00;;;;;;5118562;28;20538;-60
2024/02/26 01:35:10;;;;;;;0.60;0.30;;;8.80;1.00;;;;;;5133763;27;20914;-60
2024/02/26 01:37:37;;;;;;;0.50;0.30;;;8.80;16.50;;;;;;5138911;27;20429;-58
2024/02/26 01:40:06;;;;;;;0.60;0.30;;;8.90;19.40;;;;;;5139069;27;20700;-60
2024/02/26 01:42:33;;;;;;;0.60;0.30;;;8.90;1.00;;;;;;5137689;27;20418;-60
2024/02/26 01:45:00;;;;;;;0.70;0.30;;;8.90;11.00;;;;;;5125892;27;20426;-60
2024/02/26 01:47:28;;;;;;;0.70;0.40;;;8.80;14.40;;;;;;5138911;27;20410;-60
2024/02/26 01:49:57;;;;;;;0.88;0.30;;;8.70;40.80;;;;;;5138860;27;20410;-59
2024/02/26 01:52:24;;;;;;;0.90;0.40;;;8.80;23.50;;;;;;5138837;27;20464;-59
2024/02/26 01:54:51;;;;;;;0.75;0.40;;;8.70;7.30;;;;;;5127689;27;20842;-60
2024/02/26 01:57:19;;;;;;;0.60;0.40;;;8.70;3.90;;;;;;5134256;27;20672;-60
2024/02/26 01:59:46;;;;;;;0.50;0.30;;;8.60;37.50;;;;;;5135720;27;20422;-61
2024/02/26 02:02:13;;;;;;;0.68;0.30;;;8.60;4.00;;;;;;5117969;28;20531;-60
2024/02/26 02:04:43;;;;;;;0.60;0.35;;;8.60;1.00;;;;;;5117657;28;20427;-60
2024/02/26 02:07:11;;;;;;;1.02;0.30;;;8.60;1.00;;;;;;5117286;28;20770;-60
2024/02/26 02:09:39;;;;;;;0.50;0.30;;;8.50;1.00;;;;;;5117532;28;20439;-60
2024/02/26 02:12:06;;;;;;;0.63;0.35;;;8.50;1.00;;;;;;5118266;28;20510;-61
2024/02/26 02:14:33;;;;;;;0.50;0.30;;;8.40;1.00;;;;;;5113445;28;20420;-60
2024/02/26 02:17:00;;;;;;;0.80;0.40;;;8.50;1.00;;;;;;5118356;28;20526;-60
2024/02/26 02:19:27;;;;;;;0.70;0.40;;;8.50;8.60;;;;;;5117950;28;20821;-61
2024/02/26 02:21:55;;;;;;;1.10;0.40;;;8.40;6.60;;;;;;5117881;28;20439;-60
2024/02/26 02:24:22;;;;;;;0.70;0.40;;;8.40;10.20;;;;;;5117315;28;20436;-60
2024/02/26 02:26:49;;;;;;;0.63;0.32;;;8.40;3.00;;;;;;5109565;28;20462;-60
2024/02/26 02:29:16;;;;;;;2.40;0.30;;;8.40;1.00;;;;;;5137458;27;20426;-60
2024/02/26 02:31:43;;;;;;;0.60;0.40;;;8.30;1.00;;;;;;5131323;27;20424;-61
2024/02/26 02:34:11;;;;;;;0.60;0.30;;;8.30;1.00;;;;;;5117507;28;20444;-60
2024/02/26 02:36:50;;;;;;;0.70;0.30;;;8.30;1.00;;;;;;5117465;28;20810;-61
2024/02/26 02:39:18;;;;;;;0.77;0.30;;;8.40;1.00;;;;;;5117548;28;20458;-61
2024/02/26 02:41:45;;;;;;;0.60;0.30;;;8.50;1.00;;;;;;5118098;28;20552;-61
2024/02/26 02:44:12;;;;;;;0.50;0.20;;;8.50;1.00;;;;;;5111916;28;20534;-61
2024/02/26 02:46:39;;;;;;;1.00;0.30;;;8.50;1.00;;;;;;5116416;28;20428;-61
2024/02/26 02:49:10;;;;;;;0.50;0.30;;;8.60;1.00;;;;;;5109081;28;20872;-61
2024/02/26 02:51:37;;;;;;;0.60;0.30;;;8.70;1.00;;;;;;5117221;28;20413;-62
2024/02/26 02:54:04;;;;;;;0.60;0.30;;;8.70;1.00;;;;;;5117735;28;20447;-62
2024/02/26 02:56:32;;;;;;;0.70;0.30;;;8.70;1.00;;;;;;5109130;28;20536;-61
2024/02/26 02:58:59;;;;;;;0.68;0.30;;;8.80;1.00;;;;;;5116596;28;20861;-59
2024/02/26 03:01:26;;;;;;;0.40;0.20;;;8.80;1.00;;;;;;5120039;27;20515;-60
2024/02/26 03:03:53;;;;;;;0.50;0.20;;;8.80;1.00;;;;;;5127223;27;20515;-62
2024/02/26 03:06:20;;;;;;;0.50;0.20;;;8.90;1.00;;;;;;5117053;28;20492;-60
2024/02/26 03:08:47;;;;;;;0.60;0.25;;;8.80;1.00;;;;;;5117212;28;20470;-60
2024/02/26 03:11:15;;;;;;;0.50;0.20;;;8.80;1.00;;;;;;5117473;28;20434;-61
2024/02/26 03:13:43;;;;;;;0.43;0.20;;;8.80;1.00;;;;;;5116975;28;20438;-60
2024/02/26 03:16:10;;;;;;;0.40;0.20;;;8.90;1.00;;;;;;5117067;28;20440;-59
2024/02/26 03:18:39;;;;;;;0.70;0.30;;;9.00;1.00;;;;;;5117270;28;20469;-60
2024/02/26 03:21:06;;;;;;;0.60;0.20;;;9.00;1.00;;;;;;5116984;28;20513;-60
2024/02/26 03:23:36;;;;;;;0.50;0.20;;;9.00;1.00;;;;;;5117151;28;20439;-60
2024/02/26 03:26:03;;;;;;;0.50;0.20;;;9.00;1.00;;;;;;5116383;28;20786;-60
2024/02/26 03:28:30;;;;;;;0.52;0.20;;;8.90;1.00;;;;;;5116701;28;20423;-59
2024/02/26 03:30:59;;;;;;;0.65;0.20;;;8.90;1.00;;;;;;5116060;28;20416;-60
2024/02/26 03:33:26;;;;;;;0.50;0.30;;;8.70;1.00;;;;;;5116538;28;20477;-60
2024/02/26 03:35:52;;;;;;;0.68;0.20;;;8.80;1.00;;;;;;5117495;28;20459;-63
2024/02/26 03:38:19;;;;;;;0.50;0.20;;;8.80;1.00;;;;;;5116860;28;20428;-59
2024/02/26 03:40:46;;;;;;;0.40;0.20;;;8.90;1.00;;;;;;5117250;28;20460;-59
2024/02/26 03:43:13;;;;;;;0.40;0.20;;;8.90;1.00;;;;;;5116265;28;20737;-59
2024/02/26 03:45:40;;;;;;;0.50;0.20;;;9.00;1.00;;;;;;5116820;28;20507;-61
2024/02/26 03:48:09;;;;;;;0.52;0.30;;;9.00;1.00;;;;;;5116786;28;20503;-59
2024/02/26 03:50:35;;;;;;;0.40;0.20;;;9.00;1.00;;;;;;5116521;28;20515;-60
2024/02/26 03:53:02;;;;;;;0.50;0.30;;;9.10;21.70;;;;;;5117503;28;20503;-60
2024/02/26 03:55:29;;;;;;;0.50;0.22;;;9.10;99.90;;;;;;5129735;28;20524;-60
2024/02/26 03:57:56;;;;;;;0.70;0.22;;;9.10;99.90;;;;;;5136867;28;20709;-60
2024/02/26 04:00:23;;;;;;;0.60;0.30;;;9.20;94.00;;;;;;5136858;28;20870;-60
2024/02/26 04:02:50;;;;;;;0.50;0.30;;;9.10;72.80;;;;;;5137144;28;20419;-59
2024/02/26 04:05:18;;;;;;;0.90;0.30;;;9.10;99.90;;;;;;5137076;28;20460;-60
2024/02/26 04:07:45;;;;;;;0.50;0.30;;;9.10;52.80;;;;;;5137041;28;20418;-60
2024/02/26 04:10:13;;;;;;;0.70;0.30;;;9.10;97.20;;;;;;5137350;28;20494;-60
2024/02/26 04:12:41;;;;;;;0.75;0.47;;;9.00;99.90;;;;;;5136810;28;20509;-59
2024/02/26 04:15:09;;;;;;;1.13;0.30;;;8.90;99.90;;;;;;5122500;28;20423;-59
2024/02/26 04:17:36;;;;;;;0.50;0.30;;;8.80;99.90;;;;;;5119633;28;22013;-60
2024/02/26 04:20:05;;;;;;;0.60;0.30;;;8.90;99.90;;;;;;5122816;27;20471;-60
2024/02/26 04:22:33;;;;;;;0.70;0.40;;;9.00;99.90;;;;;;5135551;27;20424;-59
2024/02/26 04:25:00;;;;;;;0.60;0.40;;;9.00;99.90;;;;;;5115447;27;20426;-60
2024/02/26 04:27:27;;;;;;;0.60;0.40;;;8.90;99.90;;;;;;5132119;27;20448;-60
2024/02/26 04:29:54;;;;;;;0.60;0.30;;;8.80;99.90;;;;;;5136032;27;20506;-60
2024/02/26 04:32:21;;;;;;;0.70;0.40;;;8.70;99.90;;;;;;5137768;27;20446;-60
2024/02/26 04:34:48;;;;;;;0.82;0.40;;;8.70;99.90;;;;;;5119164;28;20776;-59
2024/02/26 04:37:15;;;;;;;0.80;0.50;;;8.70;99.90;;;;;;5120031;28;20526;-59
2024/02/26 04:39:43;;;;;;;0.70;0.50;;;8.70;99.90;;;;;;5120201;28;20448;-60
2024/02/26 04:42:10;;;;;;;0.83;0.40;;;8.70;99.90;;;;;;5119640;28;20494;-60
2024/02/26 04:44:37;;;;;;;0.80;0.40;;;8.60;99.90;;;;;;5119261;28;20420;-60
2024/02/26 04:47:04;;;;;;;0.70;0.40;;;8.60;99.90;;;;;;5119430;28;20502;-60
2024/02/26 04:49:31;;;;;;;0.80;0.40;;;8.60;99.90;;;;;;5119370;28;20505;-60
2024/02/26 04:51:58;;;;;;;0.90;0.50;;;8.70;99.90;;;;;;5119163;28;20451;-60
2024/02/26 04:54:25;;;;;;;0.65;0.40;;;8.80;99.90;;;;;;5117526;28;20547;-60
2024/02/26 04:56:53;;;;;;;0.65;0.40;;;8.90;99.90;;;;;;5131981;27;21034;-59
2024/02/26 04:59:20;;;;;;;0.90;0.35;;;8.70;99.90;;;;;;5129279;27;20457;-59
2024/02/26 05:01:46;;;;;;;0.60;0.30;;;8.70;99.90;;;;;;5138985;27;20732;-60
2024/02/26 05:04:13;;;;;;;0.70;0.40;;;8.70;99.90;;;;;;5120703;27;20827;-59
2024/02/26 05:06:40;;;;;;;0.60;0.30;;;8.50;99.90;;;;;;5118058;28;20491;-60
2024/02/26 05:09:07;;;;;;;1.00;0.30;;;8.50;99.90;;;;;;5116696;28;20925;-59
2024/02/26 05:11:35;;;;;;;0.40;0.30;;;8.40;99.90;;;;;;5113019;28;20929;-60
2024/02/26 05:14:03;;;;;;;0.63;0.30;;;8.50;98.10;;;;;;5118802;28;21301;-59
2024/02/26 05:16:31;;;;;;;0.50;0.30;;;8.40;92.80;;;;;;5133274;27;21167;-60
2024/02/26 05:18:57;;;;;;;0.60;0.30;;;8.50;93.20;;;;;;5137377;27;20415;-59
2024/02/26 05:21:24;;;;;;;0.60;0.30;;;8.40;99.90;;;;;;5132934;27;20496;-60
2024/02/26 05:23:51;;;;;;;0.60;0.30;;;8.40;95.10;;;;;;5123537;27;20503;-60
2024/02/26 05:26:22;;;;;;;0.60;0.30;;;8.40;99.90;;;;;;5117585;28;20519;-59
2024/02/26 05:28:49;;;;;;;0.90;0.40;;;8.30;99.90;;;;;;5118665;27;20431;-59
2024/02/26 05:31:18;;;;;;;0.77;0.40;;;8.30;99.90;;;;;;5134743;27;21095;-59
2024/02/26 05:33:45;;;;;;;0.60;0.40;;;8.30;99.90;;;;;;5137296;27;20734;-59
2024/02/26 05:36:19;;;;;;;1.40;0.40;;;8.30;99.90;;;;;;5106851;27;20452;-59
2024/02/26 05:38:46;;;;;;;0.60;0.40;;;8.30;99.90;;;;;;5101104;28;20463;-59
2024/02/26 05:41:13;;;;;;;0.60;0.40;;;8.20;99.90;;;;;;5098102;28;20428;-59
2024/02/26 05:43:40;;;;;;;0.77;0.40;;;8.10;99.90;;;;;;5101683;28;20510;-59
2024/02/26 05:46:07;;;;;;;0.70;0.40;;;8.10;99.90;;;;;;5117882;28;20515;-59
2024/02/26 05:48:35;;;;;;;0.70;0.40;;;8.10;99.90;;;;;;5118241;28;20426;-59
2024/02/26 05:51:02;;;;;;;0.80;0.40;;;8.10;1.00;;;;;;5112066;28;20452;-59
2024/02/26 05:53:29;;;;;;;0.82;0.40;;;8.10;1.00;;;;;;5108436;28;20426;-59
2024/02/26 05:56:02;;;;;;;0.70;0.40;;;8.10;1.00;;;;;;5112971;28;20510;-60
2024/02/26 05:58:29;;;;;;;1.00;0.40;;;8.00;24.30;;;;;;5112292;28;20436;-61
2024/02/26 06:00:56;;;;;;;0.70;0.40;;;8.20;99.90;;;;;;5135718;27;20453;-60
2024/02/26 06:03:23;;;;;;;0.60;0.30;;;8.10;10.30;;;;;;5137656;27;20857;-61
2024/02/26 06:05:51;;;;;;;0.77;0.40;;;8.10;25.90;;;;;;5116793;27;20507;-60
2024/02/26 06:08:18;;;;;;;0.63;0.30;;;8.30;1.00;;;;;;5116575;28;20457;-60
2024/02/26 06:10:45;;;;;;;0.77;0.40;;;8.50;99.90;;;;;;5117585;28;20529;-59
2024/02/26 06:13:12;;;;;;;0.80;0.40;;;8.50;99.90;;;;;;5128865;27;20505;-60
2024/02/26 06:15:39;;;;;;;1.00;0.50;;;8.80;1.00;;;;;;5117195;28;20440;-61
2024/02/26 06:18:06;;;;;;;0.80;0.40;;;9.00;99.90;;;;;;5116860;28;20884;-61
2024/02/26 06:20:33;;;;;;;0.82;0.45;;;8.90;50.60;;;;;;5116855;28;21088;-60
2024/02/26 06:23:01;;;;;;;0.90;0.47;;;8.90;1.00;;;;;;5113037;28;20507;-61
2024/02/26 06:25:28;;;;;;;1.10;0.60;;;8.70;1.00;;;;;;5110407;28;20428;-60
2024/02/26 06:27:55;;;;;;;1.30;0.50;;;8.50;99.90;;;;;;5116147;28;20567;-60
2024/02/26 06:30:22;;;;;;;1.40;0.60;;;8.30;1.00;;;;;;5115119;28;20447;-61
2024/02/26 06:32:49;;;;;;;1.40;0.55;;;8.30;94.70;;;;;;5122088;27;20774;-60
2024/02/26 06:35:18;;;;;;;1.05;0.50;;;8.40;40.70;;;;;;5120923;27;20864;-60
2024/02/26 06:37:45;;;;;;;1.35;0.50;;;8.40;1.00;;;;;;5110543;28;20434;-59
2024/02/26 06:40:14;;;;;;;1.05;0.50;;;8.40;1.00;;;;;;5124261;27;20432;-59
2024/02/26 06:42:48;;;;;;;1.35;0.50;;;8.40;99.90;;;;;;5119245;27;20428;-60
2024/02/26 06:45:15;;;;;;;1.20;0.60;;;8.50;99.90;;;;;;5115261;27;20775;-61
2024/02/26 06:47:42;;;;;;;1.00;0.60;;;8.60;1.00;;;;;;5125337;27;20507;-60
2024/02/26 06:50:10;;;;;;;1.50;0.50;;;8.50;1.00;;;;;;5116975;28;20436;-60
2024/02/26 06:52:37;;;;;;;1.60;0.50;;;8.60;45.50;;;;;;5107763;28;20781;-60
2024/02/26 06:55:04;;;;;;;0.80;0.50;;;8.90;99.90;;;;;;5112173;28;20581;-59
2024/02/26 06:57:33;;;;;;;0.98;0.50;;;8.90;99.90;;;;;;5115999;28;20428;-59
2024/02/26 07:00:00;;;;;;;0.90;0.50;;;8.90;1.00;;;;;;5115869;28;20527;-59
2024/02/26 07:02:26;;;;;;;1.50;0.60;;;9.00;1.00;;;;;;5109579;27;20526;-61
2024/02/26 07:04:54;;;;;;;1.27;0.60;;;8.90;1.00;;;;;;5136699;27;20508;-61
2024/02/26 07:07:22;;;;;;;1.30;0.60;;;8.90;1.00;;;;;;5136724;27;20421;-65
2024/02/26 07:09:49;;;;;;;0.88;0.50;;;8.70;1.00;;;;;;5135746;27;20916;-66
2024/02/26 07:12:16;;;;;;;0.80;0.47;;;8.60;1.00;;;;;;5116229;27;20443;-66
2024/02/26 07:14:48;;;;;;;0.75;0.40;;;8.50;20.10;;;;;;5104616;28;20430;-67
2024/02/26 07:17:16;;;;;;;0.90;0.40;;;8.50;1.00;;;;;;5114446;28;20438;-67
2024/02/26 07:19:43;;;;;;;1.88;0.45;;;8.50;99.90;;;;;;5113696;28;20439;-67
2024/02/26 07:22:10;;;;;;;1.20;0.40;;;8.50;99.90;;;;;;5114640;28;20506;-67
2024/02/26 07:24:38;;;;;;;0.90;0.50;;;8.40;99.90;;;;;;5113468;28;20814;-66
2024/02/26 07:27:05;;;;;;;0.80;0.50;;;8.40;58.30;;;;;;5114318;28;20682;-68
2024/02/26 07:29:33;;;;;;;0.70;0.40;;;8.40;1.00;;;;;;5100738;28;20799;-65
2024/02/26 07:32:02;;;;;;;1.15;0.40;;;8.40;99.90;;;;;;5107254;28;20430;-66
2024/02/26 07:34:29;;;;;;;1.00;0.32;;;8.50;1.00;;;;;;5130702;28;20418;-66
2024/02/26 07:36:56;;;;;;;0.63;0.40;;;8.40;99.90;;;;;;5136719;28;20407;-66
2024/02/26 07:39:23;;;;;;;1.67;0.40;;;8.70;1.00;;;;;;5114963;28;20420;-66
2024/02/26 07:41:52;;;;;;;0.93;0.40;;;8.80;99.90;;;;;;5116850;28;20485;-67
2024/02/26 07:44:19;;;;;;;0.60;0.40;;;8.80;1.00;;;;;;5111077;28;20432;-68
2024/02/26 07:46:47;;;;;;;0.60;0.40;;;8.80;1.00;;;;;;5117044;28;20511;-65
2024/02/26 07:49:15;;;;;;;0.80;0.50;;;8.70;12.90;;;;;;5113243;28;20514;-66
2024/02/26 07:51:42;;;;;;;0.70;0.40;;;8.70;99.90;;;;;;5119497;28;20791;-68
2024/02/26 07:54:09;;;;;;;0.90;0.50;;;8.80;99.90;;;;;;5119408;28;20523;-68
2024/02/26 07:56:36;;;;;;;0.80;0.50;;;8.70;99.90;;;;;;5116130;28;20523;-67
2024/02/26 07:59:03;;;;;;;0.80;0.50;;;8.70;99.90;;;;;;5110541;28;20934;-67
2024/02/26 08:01:30;;;;;;;0.80;0.50;;;8.80;99.90;;;;;;5118568;28;20428;-68
2024/02/26 08:03:58;;;;;;;2.20;0.50;;;8.90;99.90;;;;;;5119883;28;20431;-70
2024/02/26 08:06:27;;;;;;;0.90;0.50;;;8.80;8.40;;;;;;5111891;28;20463;-69
2024/02/26 08:08:54;;;;;;;0.90;0.50;;;8.90;99.90;;;;;;5118268;28;20560;-70
2024/02/26 08:11:20;;;;;;;1.90;0.60;;;9.10;99.90;;;;;;5108822;28;20464;-69
2024/02/26 08:13:47;;;;;;;0.90;0.50;;;9.30;1.00;;;;;;5115887;28;20488;-69
2024/02/26 08:16:14;;;;;;;2.80;0.50;;;9.60;99.90;;;;;;5117226;28;20528;-69
2024/02/26 08:18:41;;;;;;;1.10;0.63;;;9.70;99.90;;;;;;5118195;28;20432;-70
2024/02/26 08:21:10;;;;;;;2.80;0.50;;;9.80;99.90;;;;;;5109525;28;20525;-70
2024/02/26 08:23:40;;;;;;;0.93;0.60;;;9.80;1.00;;;;;;5109482;28;20820;-68
2024/02/26 08:26:10;;;;;;;1.30;0.60;;;9.70;1.00;;;;;;5119206;28;20830;-69
2024/02/26 08:28:38;;;;;;;1.40;0.70;;;9.60;1.00;;;;;;5118154;28;20424;-69
2024/02/26 08:31:05;;;;;;;1.50;0.70;;;9.60;1.00;;;;;;5118951;28;20480;-69
2024/02/26 08:33:33;;;;;;;1.20;0.50;;;9.60;1.00;;;;;;5108176;28;20443;-68
2024/02/26 08:36:00;;;;;;;1.10;0.50;;;9.90;1.00;;;;;;5111491;28;20483;-70
2024/02/26 08:38:27;;;;;;;0.90;0.40;;;10.00;1.00;;;;;;5118931;28;20527;-69
2024/02/26 08:40:56;;;;;;;0.80;0.40;;;10.10;99.90;;;;;;5119697;28;20763;-70
2024/02/26 08:43:25;;;;;;;0.98;0.40;;;10.20;99.90;;;;;;5119239;28;20452;-68
2024/02/26 08:45:53;;;;;;;0.80;0.50;;;10.20;99.90;;;;;;5118130;28;20451;-69
2024/02/26 08:48:21;;;;;;;0.70;0.40;;;9.70;99.90;;;;;;5114918;28;21012;-65
2024/02/26 08:50:48;;;;;;;0.70;0.40;;;9.60;99.90;;;;;;5112791;28;20499;-66
2024/02/26 08:53:15;;;;;;;1.20;0.40;;;9.40;99.90;;;;;;5119797;28;20523;-67
2024/02/26 08:55:42;;;;;;;0.80;0.43;;;9.60;99.90;;;;;;5111457;28;20650;-60
2024/02/26 08:58:10;;;;;;;1.00;0.45;;;9.80;99.90;;;;;;5113091;28;20810;-60
2024/02/26 09:00:37;;;;;;;0.80;0.40;;;9.80;99.90;;;;;;5116032;28;20524;-61
2024/02/26 09:03:04;;;;;;;0.80;0.50;;;9.90;99.90;;;;;;5117899;28;20432;-60
2024/02/26 09:05:31;;;;;;;0.80;0.50;;;10.10;99.90;;;;;;5117794;28;20467;-60
2024/02/26 09:07:58;;;;;;;1.17;0.40;;;10.10;99.90;;;;;;5117270;28;20436;-60
2024/02/26 09:10:25;;;;;;;0.80;0.40;;;10.20;99.90;;;;;;5119394;28;20774;-63
2024/02/26 09:12:52;;;;;;;0.70;0.40;;;10.40;99.90;;;;;;5118633;28;20420;-62
2024/02/26 09:15:21;;;;;;;1.23;0.40;;;10.40;85.20;;;;;;5113619;28;20504;-62
2024/02/26 09:17:50;;;;;;;0.73;0.30;;;10.40;22.20;;;;;;5117784;28;20864;-62
2024/02/26 09:20:19;;;;;;;1.10;0.40;;;10.40;36.90;;;;;;5118221;28;20424;-63
2024/02/26 09:22:46;;;;;;;0.68;0.40;;;10.60;51.10;;;;;;5119085;28;20428;-62
2024/02/26 09:25:15;;;;;;;0.90;0.40;;;10.80;8.30;;;;;;5118828;28;20473;-63
2024/02/26 09:27:42;;;;;;;0.70;0.40;;;10.80;28.80;;;;;;5117618;28;20514;-63
2024/02/26 09:30:10;;;;;;;1.52;0.40;;;10.90;1.00;;;;;;5118110;28;20822;-62
2024/02/26 09:32:38;;;;;;;1.08;0.50;;;11.00;30.10;;;;;;5133519;27;20449;-63
2024/02/26 09:35:07;;;;;;;1.00;0.55;;;11.10;3.40;;;;;;5136871;27;20418;-63
2024/02/26 09:37:36;;;;;;;1.50;0.60;;;11.00;1.00;;;;;;5102990;27;20524;-63
2024/02/26 09:40:04;;;;;;;1.70;0.50;;;10.80;1.00;;;;;;5105425;27;20744;-63
2024/02/26 09:42:31;;;;;;;1.00;0.50;;;10.80;1.00;;;;;;5095661;28;20552;-60
2024/02/26 09:45:03;;;;;;;0.90;0.57;;;10.70;1.00;;;;;;5115454;28;20428;-64
2024/02/26 09:47:32;;;;;;;1.20;0.60;;;10.60;1.00;;;;;;5114511;28;20534;-65
2024/02/26 09:50:03;;;;;;;0.95;0.60;;;10.60;28.00;;;;;;5105972;28;20465;-66
2024/02/26 09:52:34;;;;;;;1.90;0.80;;;10.70;10.70;;;;;;5096828;28;20828;-65
2024/02/26 09:55:01;;;;;;;1.25;0.60;;;11.00;30.20;;;;;;5116576;28;20412;-65
2024/02/26 09:57:29;;;;;;;1.00;0.60;;;11.20;32.80;;;;;;5105785;28;20476;-66
2024/02/26 10:00:03;;;;;;;1.20;0.70;;;11.40;1.00;;;;;;5089794;28;20532;-66
2024/02/26 10:02:33;;;;;;;1.35;0.60;;;11.30;1.00;;;;;;5098726;28;20522;-63
2024/02/26 10:05:08;;;;;;;2.70;0.80;;;11.40;1.00;;;;;;5090149;28;20468;-66
2024/02/26 10:07:36;;;;;;;1.00;0.70;;;11.50;1.00;;;;;;5088836;27;20442;-66
2024/02/26 10:10:04;;;;;;;3.80;0.80;;;11.60;1.00;;;;;;5112968;27;20849;-66
2024/02/26 10:12:32;;;;;;;1.20;0.70;;;11.60;1.00;;;;;;5115652;28;20535;-66
2024/02/26 10:14:59;;;;;;;1.30;0.80;;;11.80;1.00;;;;;;5112037;27;20519;-64
2024/02/26 10:17:27;;;;;;;2.40;0.70;;;11.90;1.00;;;;;;5106732;28;20762;-64
2024/02/26 10:19:56;;;;;;;1.40;0.60;;;12.00;1.00;;;;;;5118563;27;20447;-65
2024/02/26 10:22:24;;;;;;;2.30;0.80;;;12.10;1.00;;;;;;5101597;28;20456;-65
2024/02/26 10:24:51;;;;;;;2.30;0.70;;;12.00;1.00;;;;;;5110944;27;20744;-65
2024/02/26 10:27:19;;;;;;;1.20;0.70;;;12.00;1.00;;;;;;5113302;27;20459;-66
2024/02/26 10:29:47;;;;;;;3.17;0.70;;;12.10;1.00;;;;;;5106736;28;20436;-66
2024/02/26 10:32:14;;;;;;;1.10;0.70;;;12.20;1.00;;;;;;5107803;28;20451;-66
2024/02/26 10:34:41;;;;;;;1.53;0.70;;;12.30;1.00;;;;;;5109686;27;20443;-66
2024/02/26 10:37:10;;;;;;;1.20;0.70;;;12.60;1.00;;;;;;5113037;27;20432;-64
2024/02/26 10:39:39;;;;;;;2.20;0.60;;;12.50;1.00;;;;;;5082275;27;20509;-65
2024/02/26 10:42:17;;;;;;;1.17;0.63;;;12.70;1.00;;;;;;5022301;28;20451;-64
2024/02/26 10:44:45;;;;;;;0.90;0.60;;;12.80;1.00;;;;;;5030239;28;20450;-66
2024/02/26 10:47:12;;;;;;;3.80;0.70;;;12.80;1.00;;;;;;5027902;28;20438;-66
2024/02/26 10:49:39;;;;;;;1.80;0.60;;;12.70;1.00;;;;;;5028812;28;21251;-67
2024/02/26 10:52:08;;;;;;;1.30;0.60;;;12.80;1.00;;;;;;5028439;28;20545;-67
2024/02/26 10:54:43;;;;;;;1.10;0.60;;;12.90;1.00;;;;;;5029328;28;20452;-67
2024/02/26 10:57:10;;;;;;;1.30;0.50;;;13.00;1.00;;;;;;5019954;28;21100;-67
2024/02/26 10:59:39;;;;;;;1.20;0.60;;;13.20;1.00;;;;;;5032574;28;20559;-67
2024/02/26 11:02:06;;;;;;;1.10;0.60;;;13.30;1.00;;;;;;5037886;28;20505;-67
2024/02/26 11:04:38;;;;;;;1.60;0.50;;;13.20;1.00;;;;;;5028364;28;20440;-67
2024/02/26 11:07:06;;;;;;;0.80;0.50;;;13.10;1.00;;;;;;5025416;28;20530;-69
2024/02/26 11:09:34;;;;;;;0.82;0.50;;;12.90;1.00;;;;;;5033868;28;20463;-68
2024/02/26 11:12:07;;;;;;;1.05;0.50;;;12.90;1.00;;;;;;5021519;28;20523;-67
2024/02/26 11:14:35;;;;;;;0.98;0.60;;;13.00;1.00;;;;;;5025098;28;20449;-67
2024/02/26 11:17:03;;;;;;;1.60;0.70;;;13.20;1.00;;;;;;5035274;28;20502;-68
2024/02/26 11:19:34;;;;;;;2.30;0.60;;;13.40;1.00;;;;;;5029889;28;20438;-67
2024/02/26 11:22:01;;;;;;;1.00;0.60;;;13.60;1.00;;;;;;5032768;28;20467;-67
2024/02/26 11:24:28;;;;;;;1.20;0.60;;;13.70;1.00;;;;;;5030894;28;20804;-67
2024/02/26 11:27:04;;;;;;;1.10;0.60;;;13.60;1.00;;;;;;5032410;28;20766;-67
2024/02/26 11:29:39;;;;;;;3.20;0.70;;;13.50;1.00;;;;;;5034746;28;20473;-68
2024/02/26 11:32:07;;;;;;;1.17;0.50;;;13.30;1.00;;;;;;5036620;28;20453;-68
2024/02/26 11:34:37;;;;;;;0.80;0.50;;;12.90;1.00;;;;;;5036568;28;20521;-66
2024/02/26 11:37:11;;;;;;;1.38;0.60;;;12.90;1.00;;;;;;5040043;28;20489;-66
2024/02/26 11:39:40;;;;;;;1.75;0.70;;;12.80;1.00;;;;;;5034965;28;20700;-66
2024/02/26 11:42:10;;;;;;;1.02;0.60;;;12.90;1.00;;;;;;5033663;28;20537;-66
2024/02/26 11:44:39;;;;;;;1.50;0.65;;;13.20;1.00;;;;;;5038465;28;20449;-65
2024/02/26 11:47:13;;;;;;;1.60;0.70;;;13.40;1.00;;;;;;5048969;28;20560;-66
2024/02/26 11:49:40;;;;;;;1.00;0.60;;;13.40;1.00;;;;;;5063106;28;20508;-67
2024/02/26 11:52:09;;;;;;;1.10;0.60;;;13.40;1.00;;;;;;5053083;28;20466;-66
2024/02/26 11:54:49;;;;;;;1.40;0.60;;;13.10;1.00;;;;;;5051657;28;20518;-66
2024/02/26 11:57:22;;;;;;;1.55;0.65;;;13.00;1.00;;;;;;5050505;28;20530;-67
2024/02/26 11:59:51;;;;;;;1.70;0.60;;;13.00;1.00;;;;;;5044860;28;20862;-68
2024/02/26 12:02:47;;;;;;;1.00;0.50;;;13.20;1.00;;;;;;5053147;28;20510;-66
2024/02/26 12:05:16;;;;;;;1.38;0.60;;;13.10;1.00;;;;;;5046002;28;20784;-67
2024/02/26 12:07:47;;;;;;;0.90;0.60;;;13.10;1.00;;;;;;5047324;28;20437;-67
2024/02/26 12:10:26;;;;;;;0.90;0.60;;;13.00;1.00;;;;;;5055872;28;20536;-67
2024/02/26 12:13:00;;;;;;;1.00;0.50;;;13.10;1.00;;;;;;5046257;28;20440;-67
2024/02/26 12:15:33;;;;;;;1.10;0.60;;;13.20;1.00;;;;;;5050125;28;20536;-67
2024/02/26 12:18:03;;;;;;;1.08;0.50;;;13.30;1.00;;;;;;5063521;28;20524;-68
2024/02/26 12:20:30;;;;;;;1.23;0.50;;;13.30;1.00;;;;;;5056732;28;20431;-67
2024/02/26 12:22:57;;;;;;;1.13;0.60;;;13.20;1.00;;;;;;5045963;28;20447;-68
2024/02/26 12:25:26;;;;;;;1.55;0.52;;;13.30;1.00;;;;;;5061070;28;20436;-68
2024/02/26 12:27:53;;;;;;;1.02;0.50;;;13.40;1.00;;;;;;5054519;28;20559;-67
2024/02/26 12:30:20;;;;;;;1.30;0.43;;;13.50;1.00;;;;;;5053849;28;21977;-68
2024/02/26 12:32:49;;;;;;;0.80;0.50;;;13.70;1.00;;;;;;5054401;28;20735;-67
2024/02/26 12:35:16;;;;;;;1.20;0.50;;;13.70;1.00;;;;;;5064123;28;20498;-67
2024/02/26 12:37:44;;;;;;;0.93;0.50;;;13.60;1.00;;;;;;5055089;28;20429;-66
2024/02/26 12:40:12;;;;;;;1.20;0.50;;;13.70;1.00;;;;;;5055302;28;20440;-66
2024/02/26 12:42:40;;;;;;;2.17;1.08;;;13.70;1.00;;;;;;5056649;28;20479;-66
2024/02/26 12:45:09;;;;;;;0.90;0.50;;;13.60;1.00;;;;;;5058508;28;20906;-67
2024/02/26 12:47:38;;;;;;;1.45;0.55;;;13.70;1.00;;;;;;5055122;28;20432;-65
2024/02/26 12:50:09;;;;;;;1.60;0.50;;;13.80;1.00;;;;;;5053722;28;20429;-65
2024/02/26 12:52:39;;;;;;;1.23;0.50;;;14.10;1.00;;;;;;5050702;28;20505;-66
2024/02/26 12:55:11;;;;;;;0.90;0.40;;;14.10;1.00;;;;;;5050748;28;20444;-65
2024/02/26 12:57:39;;;;;;;2.60;0.50;;;14.10;1.00;;;;;;5056071;28;20455;-64
2024/02/26 13:00:09;;;;;;;0.70;0.50;;;14.20;1.00;;;;;;5053970;28;20437;-64
2024/02/26 13:02:37;;;;;;;1.00;0.50;;;14.30;1.00;;;;;;5048527;28;20548;-64
2024/02/26 13:05:07;;;;;;;1.60;0.60;;;14.20;1.00;;;;;;5053241;28;20453;-64